sensor_id;sensor_type;location;lat;lon;timestamp;P1;durP1;ratioP1;P2;durP2;ratioP2
15878;SDS011;61999;51.514;14.614;2022-10-17T00:01:06;3.60;;;3.30;;
15878;SDS011;61999;51.514;14.614;2022-10-17T00:03:35;3.97;;;3.57;;
15878;SDS011;61999;51.514;14.614;2022-10-17T00:06:04;3.30;;;2.90;;
15878;SDS011;61999;51.514;14.614;2022-10-17T00:08:35;5.23;;;2.93;;
15878;SDS011;61999;51.514;14.614;2022-10-17T00:11:05;3.37;;;3.00;;
15878;SDS011;61999;51.514;14.614;2022-10-17T00:13:41;2.97;;;2.77;;
15878;SDS011;61999;51.514;14.614;2022-10-17T00:16:10;3.33;;;3.03;;
15878;SDS011;61999;51.514;14.614;2022-10-17T00:18:38;2.70;;;2.50;;
15878;SDS011;61999;51.514;14.614;2022-10-17T00:21:13;2.97;;;2.60;;
15878;SDS011;61999;51.514;14.614;2022-10-17T00:23:42;2.97;;;2.77;;
15878;SDS011;61999;51.514;14.614;2022-10-17T00:26:11;5.97;;;3.10;;
15878;SDS011;61999;51.514;14.614;2022-10-17T00:28:39;3.10;;;2.80;;
15878;SDS011;61999;51.514;14.614;2022-10-17T00:31:08;3.67;;;3.23;;
15878;SDS011;61999;51.514;14.614;2022-10-17T00:33:36;3.17;;;2.77;;
15878;SDS011;61999;51.514;14.614;2022-10-17T00:36:04;2.63;;;2.43;;
15878;SDS011;61999;51.514;14.614;2022-10-17T00:38:35;2.60;;;2.40;;
15878;SDS011;61999;51.514;14.614;2022-10-17T00:41:03;2.57;;;2.37;;
15878;SDS011;61999;51.514;14.614;2022-10-17T00:43:47;2.70;;;2.50;;
15878;SDS011;61999;51.514;14.614;2022-10-17T00:46:24;3.93;;;2.77;;
15878;SDS011;61999;51.514;14.614;2022-10-17T00:48:54;2.50;;;2.30;;
15878;SDS011;61999;51.514;14.614;2022-10-17T00:51:26;2.60;;;2.40;;
15878;SDS011;61999;51.514;14.614;2022-10-17T00:54:00;2.90;;;2.60;;
15878;SDS011;61999;51.514;14.614;2022-10-17T00:56:31;2.53;;;2.33;;
15878;SDS011;61999;51.514;14.614;2022-10-17T00:59:00;3.73;;;2.70;;
15878;SDS011;61999;51.514;14.614;2022-10-17T01:01:34;2.80;;;2.60;;
15878;SDS011;61999;51.514;14.614;2022-10-17T01:04:02;3.13;;;2.30;;
15878;SDS011;61999;51.514;14.614;2022-10-17T01:06:30;3.03;;;2.30;;
15878;SDS011;61999;51.514;14.614;2022-10-17T01:08:58;2.40;;;2.20;;
15878;SDS011;61999;51.514;14.614;2022-10-17T01:11:29;2.40;;;2.20;;
15878;SDS011;61999;51.514;14.614;2022-10-17T01:14:07;3.23;;;2.50;;
15878;SDS011;61999;51.514;14.614;2022-10-17T01:16:50;2.50;;;2.30;;
15878;SDS011;61999;51.514;14.614;2022-10-17T01:19:34;2.60;;;2.40;;
15878;SDS011;61999;51.514;14.614;2022-10-17T01:22:36;3.13;;;2.33;;
15878;SDS011;61999;51.514;14.614;2022-10-17T01:25:20;2.50;;;2.30;;
15878;SDS011;61999;51.514;14.614;2022-10-17T01:28:00;2.70;;;2.50;;
15878;SDS011;61999;51.514;14.614;2022-10-17T01:31:06;3.20;;;2.57;;
15878;SDS011;61999;51.514;14.614;2022-10-17T01:33:45;3.80;;;2.93;;
15878;SDS011;61999;51.514;14.614;2022-10-17T01:36:25;2.80;;;2.60;;
15878;SDS011;61999;51.514;14.614;2022-10-17T01:39:08;3.20;;;2.90;;
15878;SDS011;61999;51.514;14.614;2022-10-17T01:41:44;4.40;;;3.97;;
15878;SDS011;61999;51.514;14.614;2022-10-17T01:44:19;5.27;;;4.77;;
15878;SDS011;61999;51.514;14.614;2022-10-17T01:46:58;5.70;;;5.10;;
15878;SDS011;61999;51.514;14.614;2022-10-17T01:49:32;5.60;;;5.03;;
15878;SDS011;61999;51.514;14.614;2022-10-17T01:52:05;6.77;;;5.80;;
15878;SDS011;61999;51.514;14.614;2022-10-17T01:54:39;7.83;;;7.03;;
15878;SDS011;61999;51.514;14.614;2022-10-17T01:57:15;5.17;;;4.67;;
15878;SDS011;61999;51.514;14.614;2022-10-17T01:59:53;4.97;;;4.57;;
15878;SDS011;61999;51.514;14.614;2022-10-17T02:02:24;6.90;;;6.20;;
15878;SDS011;61999;51.514;14.614;2022-10-17T02:04:54;6.23;;;5.63;;
15878;SDS011;61999;51.514;14.614;2022-10-17T02:07:24;7.93;;;7.17;;
15878;SDS011;61999;51.514;14.614;2022-10-17T02:09:52;6.87;;;6.10;;
15878;SDS011;61999;51.514;14.614;2022-10-17T02:12:27;7.63;;;6.93;;
15878;SDS011;61999;51.514;14.614;2022-10-17T02:15:10;5.93;;;5.33;;
15878;SDS011;61999;51.514;14.614;2022-10-17T02:18:07;6.47;;;5.87;;
15878;SDS011;61999;51.514;14.614;2022-10-17T02:20:53;6.87;;;6.27;;
15878;SDS011;61999;51.514;14.614;2022-10-17T02:23:29;7.50;;;6.67;;
15878;SDS011;61999;51.514;14.614;2022-10-17T02:26:14;6.70;;;6.10;;
15878;SDS011;61999;51.514;14.614;2022-10-17T02:28:55;6.33;;;5.50;;
15878;SDS011;61999;51.514;14.614;2022-10-17T02:31:34;6.17;;;5.43;;
15878;SDS011;61999;51.514;14.614;2022-10-17T02:34:11;8.97;;;7.80;;
15878;SDS011;61999;51.514;14.614;2022-10-17T02:36:46;10.83;;;9.53;;
15878;SDS011;61999;51.514;14.614;2022-10-17T02:39:19;10.80;;;9.70;;
15878;SDS011;61999;51.514;14.614;2022-10-17T02:41:50;11.00;;;9.90;;
15878;SDS011;61999;51.514;14.614;2022-10-17T02:44:22;11.43;;;9.93;;
15878;SDS011;61999;51.514;14.614;2022-10-17T02:46:53;10.30;;;9.20;;
15878;SDS011;61999;51.514;14.614;2022-10-17T02:49:32;11.10;;;9.97;;
15878;SDS011;61999;51.514;14.614;2022-10-17T02:52:09;10.93;;;9.73;;
15878;SDS011;61999;51.514;14.614;2022-10-17T02:54:43;15.07;;;13.47;;
15878;SDS011;61999;51.514;14.614;2022-10-17T02:57:21;12.63;;;11.33;;
15878;SDS011;61999;51.514;14.614;2022-10-17T02:59:56;11.90;;;10.70;;
15878;SDS011;61999;51.514;14.614;2022-10-17T03:02:27;11.93;;;10.73;;
15878;SDS011;61999;51.514;14.614;2022-10-17T03:05:07;14.20;;;12.60;;
15878;SDS011;61999;51.514;14.614;2022-10-17T03:07:35;12.67;;;11.33;;
15878;SDS011;61999;51.514;14.614;2022-10-17T03:10:03;12.37;;;11.13;;
15878;SDS011;61999;51.514;14.614;2022-10-17T03:12:32;12.63;;;10.73;;
15878;SDS011;61999;51.514;14.614;2022-10-17T03:15:00;14.77;;;13.27;;
15878;SDS011;61999;51.514;14.614;2022-10-17T03:17:28;15.57;;;13.80;;
15878;SDS011;61999;51.514;14.614;2022-10-17T03:19:56;16.60;;;13.13;;
15878;SDS011;61999;51.514;14.614;2022-10-17T03:22:25;17.97;;;16.07;;
15878;SDS011;61999;51.514;14.614;2022-10-17T03:24:53;18.17;;;16.27;;
15878;SDS011;61999;51.514;14.614;2022-10-17T03:27:21;18.37;;;16.30;;
15878;SDS011;61999;51.514;14.614;2022-10-17T03:29:49;20.87;;;18.67;;
15878;SDS011;61999;51.514;14.614;2022-10-17T03:32:17;21.63;;;19.23;;
15878;SDS011;61999;51.514;14.614;2022-10-17T03:34:45;22.23;;;19.93;;
15878;SDS011;61999;51.514;14.614;2022-10-17T03:37:13;27.43;;;22.83;;
15878;SDS011;61999;51.514;14.614;2022-10-17T03:39:43;23.73;;;21.17;;
15878;SDS011;61999;51.514;14.614;2022-10-17T03:42:10;22.07;;;19.27;;
15878;SDS011;61999;51.514;14.614;2022-10-17T03:44:38;21.47;;;19.23;;
15878;SDS011;61999;51.514;14.614;2022-10-17T03:47:06;20.47;;;18.10;;
15878;SDS011;61999;51.514;14.614;2022-10-17T03:49:35;24.67;;;22.17;;
15878;SDS011;61999;51.514;14.614;2022-10-17T03:52:03;21.30;;;19.03;;
15878;SDS011;61999;51.514;14.614;2022-10-17T03:54:31;21.30;;;19.13;;
15878;SDS011;61999;51.514;14.614;2022-10-17T03:57:00;21.93;;;19.27;;
15878;SDS011;61999;51.514;14.614;2022-10-17T03:59:28;21.30;;;19.03;;
15878;SDS011;61999;51.514;14.614;2022-10-17T04:01:56;26.17;;;21.27;;
15878;SDS011;61999;51.514;14.614;2022-10-17T04:04:24;24.80;;;22.23;;
15878;SDS011;61999;51.514;14.614;2022-10-17T04:06:52;25.07;;;21.57;;
15878;SDS011;61999;51.514;14.614;2022-10-17T04:09:20;23.53;;;20.97;;
15878;SDS011;61999;51.514;14.614;2022-10-17T04:11:48;22.37;;;19.37;;
15878;SDS011;61999;51.514;14.614;2022-10-17T04:14:17;25.70;;;23.00;;
15878;SDS011;61999;51.514;14.614;2022-10-17T04:16:45;24.07;;;21.47;;
15878;SDS011;61999;51.514;14.614;2022-10-17T04:19:13;25.23;;;22.60;;
15878;SDS011;61999;51.514;14.614;2022-10-17T04:21:41;26.37;;;22.43;;
15878;SDS011;61999;51.514;14.614;2022-10-17T04:24:10;28.63;;;24.50;;
15878;SDS011;61999;51.514;14.614;2022-10-17T04:26:38;29.73;;;26.00;;
15878;SDS011;61999;51.514;14.614;2022-10-17T04:29:06;27.53;;;24.63;;
15878;SDS011;61999;51.514;14.614;2022-10-17T04:31:35;23.70;;;21.20;;
15878;SDS011;61999;51.514;14.614;2022-10-17T04:34:03;25.40;;;22.77;;
15878;SDS011;61999;51.514;14.614;2022-10-17T04:36:31;27.83;;;23.30;;
15878;SDS011;61999;51.514;14.614;2022-10-17T04:38:59;26.97;;;22.73;;
15878;SDS011;61999;51.514;14.614;2022-10-17T04:41:28;26.67;;;23.87;;
15878;SDS011;61999;51.514;14.614;2022-10-17T04:43:55;30.23;;;26.63;;
15878;SDS011;61999;51.514;14.614;2022-10-17T04:46:27;26.33;;;23.53;;
15878;SDS011;61999;51.514;14.614;2022-10-17T04:49:09;26.77;;;23.57;;
15878;SDS011;61999;51.514;14.614;2022-10-17T04:51:38;25.00;;;22.40;;
15878;SDS011;61999;51.514;14.614;2022-10-17T04:54:19;23.47;;;21.07;;
15878;SDS011;61999;51.514;14.614;2022-10-17T04:56:46;28.70;;;25.60;;
15878;SDS011;61999;51.514;14.614;2022-10-17T04:59:14;25.70;;;22.40;;
15878;SDS011;61999;51.514;14.614;2022-10-17T05:01:42;29.73;;;25.20;;
15878;SDS011;61999;51.514;14.614;2022-10-17T05:04:11;25.23;;;22.63;;
15878;SDS011;61999;51.514;14.614;2022-10-17T05:06:42;22.83;;;20.27;;
15878;SDS011;61999;51.514;14.614;2022-10-17T05:09:12;24.53;;;22.03;;
15878;SDS011;61999;51.514;14.614;2022-10-17T05:11:41;23.50;;;21.00;;
15878;SDS011;61999;51.514;14.614;2022-10-17T05:14:09;25.60;;;22.60;;
15878;SDS011;61999;51.514;14.614;2022-10-17T05:16:37;25.03;;;22.37;;
15878;SDS011;61999;51.514;14.614;2022-10-17T05:19:05;28.90;;;25.80;;
15878;SDS011;61999;51.514;14.614;2022-10-17T05:21:34;24.53;;;21.93;;
15878;SDS011;61999;51.514;14.614;2022-10-17T05:24:03;24.80;;;22.20;;
15878;SDS011;61999;51.514;14.614;2022-10-17T05:26:32;24.37;;;21.87;;
15878;SDS011;61999;51.514;14.614;2022-10-17T05:29:00;25.63;;;22.97;;
15878;SDS011;61999;51.514;14.614;2022-10-17T05:31:29;24.87;;;22.20;;
15878;SDS011;61999;51.514;14.614;2022-10-17T05:33:58;25.03;;;22.13;;
15878;SDS011;61999;51.514;14.614;2022-10-17T05:36:27;24.17;;;21.57;;
15878;SDS011;61999;51.514;14.614;2022-10-17T05:38:57;24.47;;;21.97;;
15878;SDS011;61999;51.514;14.614;2022-10-17T05:41:25;25.27;;;21.97;;
15878;SDS011;61999;51.514;14.614;2022-10-17T05:43:53;27.17;;;24.27;;
15878;SDS011;61999;51.514;14.614;2022-10-17T05:46:21;23.13;;;20.73;;
15878;SDS011;61999;51.514;14.614;2022-10-17T05:48:50;23.93;;;20.23;;
15878;SDS011;61999;51.514;14.614;2022-10-17T05:51:20;26.23;;;23.43;;
15878;SDS011;61999;51.514;14.614;2022-10-17T05:53:48;25.33;;;21.97;;
15878;SDS011;61999;51.514;14.614;2022-10-17T05:56:18;27.13;;;24.13;;
15878;SDS011;61999;51.514;14.614;2022-10-17T05:58:46;26.30;;;23.57;;
15878;SDS011;61999;51.514;14.614;2022-10-17T06:01:15;29.07;;;25.87;;
15878;SDS011;61999;51.514;14.614;2022-10-17T06:03:44;27.80;;;24.90;;
15878;SDS011;61999;51.514;14.614;2022-10-17T06:06:12;29.23;;;24.40;;
15878;SDS011;61999;51.514;14.614;2022-10-17T06:08:41;25.87;;;23.17;;
15878;SDS011;61999;51.514;14.614;2022-10-17T06:11:10;26.23;;;23.47;;
15878;SDS011;61999;51.514;14.614;2022-10-17T06:13:40;26.87;;;23.97;;
15878;SDS011;61999;51.514;14.614;2022-10-17T06:16:08;28.30;;;24.43;;
15878;SDS011;61999;51.514;14.614;2022-10-17T06:18:36;29.37;;;25.17;;
15878;SDS011;61999;51.514;14.614;2022-10-17T06:21:05;26.30;;;23.60;;
15878;SDS011;61999;51.514;14.614;2022-10-17T06:23:36;23.37;;;21.03;;
15878;SDS011;61999;51.514;14.614;2022-10-17T06:26:05;29.33;;;24.63;;
15878;SDS011;61999;51.514;14.614;2022-10-17T06:28:33;31.10;;;26.93;;
15878;SDS011;61999;51.514;14.614;2022-10-17T06:31:06;28.63;;;25.27;;
15878;SDS011;61999;51.514;14.614;2022-10-17T06:33:38;24.43;;;21.80;;
15878;SDS011;61999;51.514;14.614;2022-10-17T06:36:07;30.97;;;23.77;;
15878;SDS011;61999;51.514;14.614;2022-10-17T06:38:39;26.70;;;23.80;;
15878;SDS011;61999;51.514;14.614;2022-10-17T06:41:08;24.40;;;21.73;;
15878;SDS011;61999;51.514;14.614;2022-10-17T06:43:40;25.17;;;21.63;;
15878;SDS011;61999;51.514;14.614;2022-10-17T06:46:13;26.27;;;23.47;;
15878;SDS011;61999;51.514;14.614;2022-10-17T06:48:43;25.63;;;22.93;;
15878;SDS011;61999;51.514;14.614;2022-10-17T06:51:11;23.53;;;21.13;;
15878;SDS011;61999;51.514;14.614;2022-10-17T06:53:39;23.73;;;20.97;;
15878;SDS011;61999;51.514;14.614;2022-10-17T06:56:07;26.83;;;24.13;;
15878;SDS011;61999;51.514;14.614;2022-10-17T06:58:37;24.47;;;21.87;;
15878;SDS011;61999;51.514;14.614;2022-10-17T07:01:08;23.73;;;20.17;;
15878;SDS011;61999;51.514;14.614;2022-10-17T07:03:39;25.20;;;22.77;;
15878;SDS011;61999;51.514;14.614;2022-10-17T07:06:08;24.17;;;21.53;;
15878;SDS011;61999;51.514;14.614;2022-10-17T07:08:37;23.27;;;20.87;;
15878;SDS011;61999;51.514;14.614;2022-10-17T07:11:09;23.67;;;21.37;;
15878;SDS011;61999;51.514;14.614;2022-10-17T07:13:38;21.27;;;19.10;;
15878;SDS011;61999;51.514;14.614;2022-10-17T07:16:06;20.83;;;18.73;;
15878;SDS011;61999;51.514;14.614;2022-10-17T07:18:35;24.17;;;21.87;;
15878;SDS011;61999;51.514;14.614;2022-10-17T07:21:05;22.90;;;20.63;;
15878;SDS011;61999;51.514;14.614;2022-10-17T07:23:35;21.43;;;19.30;;
15878;SDS011;61999;51.514;14.614;2022-10-17T07:26:06;20.87;;;18.80;;
15878;SDS011;61999;51.514;14.614;2022-10-17T07:28:37;21.60;;;19.37;;
15878;SDS011;61999;51.514;14.614;2022-10-17T07:31:09;19.30;;;17.50;;
15878;SDS011;61999;51.514;14.614;2022-10-17T07:33:40;20.20;;;16.10;;
15878;SDS011;61999;51.514;14.614;2022-10-17T07:36:10;22.50;;;20.40;;
15878;SDS011;61999;51.514;14.614;2022-10-17T07:38:39;20.60;;;18.53;;
15878;SDS011;61999;51.514;14.614;2022-10-17T07:41:08;17.97;;;16.17;;
15878;SDS011;61999;51.514;14.614;2022-10-17T07:43:40;18.50;;;16.60;;
15878;SDS011;61999;51.514;14.614;2022-10-17T07:46:08;20.47;;;18.17;;
15878;SDS011;61999;51.514;14.614;2022-10-17T07:48:37;20.43;;;18.43;;
15878;SDS011;61999;51.514;14.614;2022-10-17T07:51:06;20.13;;;18.17;;
15878;SDS011;61999;51.514;14.614;2022-10-17T07:53:37;18.97;;;17.03;;
15878;SDS011;61999;51.514;14.614;2022-10-17T07:56:09;21.23;;;19.13;;
15878;SDS011;61999;51.514;14.614;2022-10-17T07:58:38;20.60;;;18.50;;
15878;SDS011;61999;51.514;14.614;2022-10-17T08:01:07;19.80;;;17.90;;
15878;SDS011;61999;51.514;14.614;2022-10-17T08:03:39;18.47;;;16.73;;
15878;SDS011;61999;51.514;14.614;2022-10-17T08:06:11;16.90;;;15.20;;
15878;SDS011;61999;51.514;14.614;2022-10-17T08:08:39;20.50;;;18.40;;
15878;SDS011;61999;51.514;14.614;2022-10-17T08:11:08;21.27;;;15.57;;
15878;SDS011;61999;51.514;14.614;2022-10-17T08:13:40;18.50;;;16.57;;
15878;SDS011;61999;51.514;14.614;2022-10-17T08:16:10;19.93;;;18.03;;
15878;SDS011;61999;51.514;14.614;2022-10-17T08:18:40;19.20;;;17.20;;
15878;SDS011;61999;51.514;14.614;2022-10-17T08:21:10;18.23;;;16.50;;
15878;SDS011;61999;51.514;14.614;2022-10-17T08:23:39;14.80;;;13.23;;
15878;SDS011;61999;51.514;14.614;2022-10-17T08:26:08;16.13;;;14.43;;
15878;SDS011;61999;51.514;14.614;2022-10-17T08:28:39;16.53;;;14.83;;
15878;SDS011;61999;51.514;14.614;2022-10-17T08:31:08;16.17;;;14.47;;
15878;SDS011;61999;51.514;14.614;2022-10-17T08:33:38;17.23;;;15.47;;
15878;SDS011;61999;51.514;14.614;2022-10-17T08:36:07;15.63;;;14.07;;
15878;SDS011;61999;51.514;14.614;2022-10-17T08:38:37;15.83;;;14.47;;
15878;SDS011;61999;51.514;14.614;2022-10-17T08:41:12;16.27;;;14.07;;
15878;SDS011;61999;51.514;14.614;2022-10-17T08:44:00;15.13;;;13.63;;
15878;SDS011;61999;51.514;14.614;2022-10-17T08:46:42;17.60;;;15.80;;
15878;SDS011;61999;51.514;14.614;2022-10-17T08:49:18;16.50;;;14.93;;
15878;SDS011;61999;51.514;14.614;2022-10-17T08:51:56;16.63;;;15.03;;
15878;SDS011;61999;51.514;14.614;2022-10-17T08:54:37;16.23;;;14.73;;
15878;SDS011;61999;51.514;14.614;2022-10-17T08:57:11;14.37;;;13.00;;
15878;SDS011;61999;51.514;14.614;2022-10-17T08:59:41;16.83;;;15.10;;
15878;SDS011;61999;51.514;14.614;2022-10-17T09:02:16;15.33;;;13.93;;
15878;SDS011;61999;51.514;14.614;2022-10-17T09:05:07;15.73;;;14.33;;
15878;SDS011;61999;51.514;14.614;2022-10-17T09:07:59;14.97;;;13.70;;
15878;SDS011;61999;51.514;14.614;2022-10-17T09:10:45;16.00;;;14.50;;
15878;SDS011;61999;51.514;14.614;2022-10-17T09:13:26;15.10;;;13.70;;
15878;SDS011;61999;51.514;14.614;2022-10-17T09:16:27;15.90;;;14.33;;
15878;SDS011;61999;51.514;14.614;2022-10-17T09:19:22;15.00;;;13.60;;
15878;SDS011;61999;51.514;14.614;2022-10-17T09:21:57;14.90;;;13.40;;
15878;SDS011;61999;51.514;14.614;2022-10-17T09:24:32;13.83;;;12.63;;
15878;SDS011;61999;51.514;14.614;2022-10-17T09:27:14;15.43;;;13.83;;
15878;SDS011;61999;51.514;14.614;2022-10-17T09:29:52;15.60;;;14.10;;
15878;SDS011;61999;51.514;14.614;2022-10-17T09:32:35;14.17;;;12.77;;
15878;SDS011;61999;51.514;14.614;2022-10-17T09:35:04;14.37;;;13.13;;
15878;SDS011;61999;51.514;14.614;2022-10-17T09:37:38;14.23;;;12.93;;
15878;SDS011;61999;51.514;14.614;2022-10-17T09:40:11;14.50;;;13.10;;
15878;SDS011;61999;51.514;14.614;2022-10-17T09:42:49;16.07;;;14.40;;
15878;SDS011;61999;51.514;14.614;2022-10-17T09:45:18;14.60;;;13.30;;
15878;SDS011;61999;51.514;14.614;2022-10-17T09:47:54;13.77;;;12.57;;
15878;SDS011;61999;51.514;14.614;2022-10-17T09:50:32;14.03;;;12.70;;
15878;SDS011;61999;51.514;14.614;2022-10-17T09:53:02;15.17;;;13.77;;
15878;SDS011;61999;51.514;14.614;2022-10-17T09:55:40;14.03;;;12.53;;
15878;SDS011;61999;51.514;14.614;2022-10-17T09:58:14;14.43;;;13.13;;
15878;SDS011;61999;51.514;14.614;2022-10-17T10:00:43;15.17;;;13.77;;
15878;SDS011;61999;51.514;14.614;2022-10-17T10:03:15;14.27;;;13.07;;
15878;SDS011;61999;51.514;14.614;2022-10-17T10:05:59;13.10;;;11.90;;
15878;SDS011;61999;51.514;14.614;2022-10-17T10:08:30;14.90;;;13.50;;
15878;SDS011;61999;51.514;14.614;2022-10-17T10:11:02;13.63;;;12.33;;
15878;SDS011;61999;51.514;14.614;2022-10-17T10:13:34;14.23;;;12.93;;
15878;SDS011;61999;51.514;14.614;2022-10-17T10:16:12;13.17;;;11.97;;
15878;SDS011;61999;51.514;14.614;2022-10-17T10:18:50;12.60;;;11.50;;
15878;SDS011;61999;51.514;14.614;2022-10-17T10:21:19;13.97;;;12.67;;
15878;SDS011;61999;51.514;14.614;2022-10-17T10:24:02;13.83;;;12.53;;
15878;SDS011;61999;51.514;14.614;2022-10-17T10:26:38;13.07;;;11.97;;
15878;SDS011;61999;51.514;14.614;2022-10-17T10:29:19;13.83;;;12.50;;
15878;SDS011;61999;51.514;14.614;2022-10-17T10:31:56;14.07;;;12.77;;
15878;SDS011;61999;51.514;14.614;2022-10-17T10:34:35;13.43;;;12.17;;
15878;SDS011;61999;51.514;14.614;2022-10-17T10:37:17;13.50;;;12.20;;
15878;SDS011;61999;51.514;14.614;2022-10-17T10:39:48;14.43;;;13.00;;
15878;SDS011;61999;51.514;14.614;2022-10-17T10:42:21;13.07;;;11.80;;
15878;SDS011;61999;51.514;14.614;2022-10-17T10:44:56;12.67;;;11.37;;
15878;SDS011;61999;51.514;14.614;2022-10-17T10:47:29;12.60;;;11.40;;
15878;SDS011;61999;51.514;14.614;2022-10-17T10:50:06;12.63;;;11.43;;
15878;SDS011;61999;51.514;14.614;2022-10-17T10:52:49;13.00;;;11.93;;
15878;SDS011;61999;51.514;14.614;2022-10-17T10:55:28;12.85;;;11.63;;
15878;SDS011;61999;51.514;14.614;2022-10-17T10:58:04;12.67;;;11.57;;
15878;SDS011;61999;51.514;14.614;2022-10-17T11:00:52;12.27;;;11.18;;
15878;SDS011;61999;51.514;14.614;2022-10-17T11:03:22;11.02;;;9.95;;
15878;SDS011;61999;51.514;14.614;2022-10-17T11:06:01;11.73;;;10.73;;
15878;SDS011;61999;51.514;14.614;2022-10-17T11:08:37;11.45;;;10.45;;
15878;SDS011;61999;51.514;14.614;2022-10-17T11:11:12;11.32;;;10.32;;
15878;SDS011;61999;51.514;14.614;2022-10-17T11:13:50;11.65;;;10.57;;
15878;SDS011;61999;51.514;14.614;2022-10-17T11:16:31;12.57;;;11.43;;
15878;SDS011;61999;51.514;14.614;2022-10-17T11:19:07;12.85;;;11.63;;
15878;SDS011;61999;51.514;14.614;2022-10-17T11:21:44;11.82;;;10.82;;
15878;SDS011;61999;51.514;14.614;2022-10-17T11:24:22;11.27;;;10.35;;
15878;SDS011;61999;51.514;14.614;2022-10-17T11:26:55;11.63;;;10.73;;
15878;SDS011;61999;51.514;14.614;2022-10-17T11:29:28;12.43;;;11.23;;
15878;SDS011;61999;51.514;14.614;2022-10-17T11:32:01;11.98;;;10.88;;
15878;SDS011;61999;51.514;14.614;2022-10-17T11:34:36;12.18;;;11.07;;
15878;SDS011;61999;51.514;14.614;2022-10-17T11:37:13;12.38;;;11.27;;
15878;SDS011;61999;51.514;14.614;2022-10-17T11:39:47;11.10;;;10.20;;
15878;SDS011;61999;51.514;14.614;2022-10-17T11:42:23;11.55;;;10.45;;
15878;SDS011;61999;51.514;14.614;2022-10-17T11:44:57;11.05;;;10.20;;
15878;SDS011;61999;51.514;14.614;2022-10-17T11:47:33;11.48;;;10.48;;
15878;SDS011;61999;51.514;14.614;2022-10-17T11:50:15;10.75;;;9.93;;
15878;SDS011;61999;51.514;14.614;2022-10-17T11:53:11;10.65;;;9.85;;
15878;SDS011;61999;51.514;14.614;2022-10-17T11:55:43;10.95;;;10.02;;
15878;SDS011;61999;51.514;14.614;2022-10-17T11:58:20;11.38;;;10.35;;
15878;SDS011;61999;51.514;14.614;2022-10-17T12:01:05;10.85;;;9.95;;
15878;SDS011;61999;51.514;14.614;2022-10-17T12:03:45;10.70;;;9.70;;
15878;SDS011;61999;51.514;14.614;2022-10-17T12:06:44;10.20;;;9.40;;
15878;SDS011;61999;51.514;14.614;2022-10-17T12:09:33;10.52;;;9.63;;
15878;SDS011;61999;51.514;14.614;2022-10-17T12:12:22;10.88;;;9.98;;
15878;SDS011;61999;51.514;14.614;2022-10-17T12:14:53;11.88;;;10.88;;
15878;SDS011;61999;51.514;14.614;2022-10-17T12:17:54;11.13;;;10.23;;
15878;SDS011;61999;51.514;14.614;2022-10-17T12:20:30;10.95;;;10.05;;
15878;SDS011;61999;51.514;14.614;2022-10-17T12:23:03;11.80;;;10.70;;
15878;SDS011;61999;51.514;14.614;2022-10-17T12:25:48;11.13;;;10.25;;
15878;SDS011;61999;51.514;14.614;2022-10-17T12:28:23;12.32;;;11.32;;
15878;SDS011;61999;51.514;14.614;2022-10-17T12:30:57;10.88;;;9.88;;
15878;SDS011;61999;51.514;14.614;2022-10-17T12:33:32;11.68;;;10.77;;
15878;SDS011;61999;51.514;14.614;2022-10-17T12:54:50;10.05;;;9.25;;
15878;SDS011;61999;51.514;14.614;2022-10-17T12:57:37;11.35;;;10.35;;
15878;SDS011;61999;51.514;14.614;2022-10-17T13:00:15;10.48;;;9.57;;
15878;SDS011;61999;51.514;14.614;2022-10-17T13:02:48;11.27;;;10.27;;
15878;SDS011;61999;51.514;14.614;2022-10-17T13:05:24;10.52;;;9.73;;
15878;SDS011;61999;51.514;14.614;2022-10-17T13:07:58;11.25;;;10.35;;
15878;SDS011;61999;51.514;14.614;2022-10-17T13:10:31;10.43;;;9.63;;
15878;SDS011;61999;51.514;14.614;2022-10-17T13:13:05;10.35;;;9.55;;
15878;SDS011;61999;51.514;14.614;2022-10-17T13:15:46;11.38;;;10.25;;
15878;SDS011;61999;51.514;14.614;2022-10-17T13:18:17;11.23;;;10.43;;
15878;SDS011;61999;51.514;14.614;2022-10-17T13:20:55;11.00;;;10.10;;
15878;SDS011;61999;51.514;14.614;2022-10-17T13:23:28;10.97;;;10.07;;
15878;SDS011;61999;51.514;14.614;2022-10-17T13:26:02;11.10;;;10.10;;
15878;SDS011;61999;51.514;14.614;2022-10-17T13:28:45;11.50;;;10.47;;
15878;SDS011;61999;51.514;14.614;2022-10-17T13:31:27;10.67;;;9.80;;
15878;SDS011;61999;51.514;14.614;2022-10-17T13:34:00;10.27;;;9.27;;
15878;SDS011;61999;51.514;14.614;2022-10-17T13:36:30;10.77;;;9.87;;
15878;SDS011;61999;51.514;14.614;2022-10-17T13:39:05;11.00;;;10.00;;
15878;SDS011;61999;51.514;14.614;2022-10-17T13:41:37;10.53;;;9.63;;
15878;SDS011;61999;51.514;14.614;2022-10-17T13:44:09;10.30;;;9.40;;
15878;SDS011;61999;51.514;14.614;2022-10-17T13:46:41;11.30;;;10.30;;
15878;SDS011;61999;51.514;14.614;2022-10-17T13:49:11;10.43;;;9.53;;
15878;SDS011;61999;51.514;14.614;2022-10-17T13:51:46;9.90;;;9.03;;
15878;SDS011;61999;51.514;14.614;2022-10-17T13:54:24;10.87;;;9.73;;
15878;SDS011;61999;51.514;14.614;2022-10-17T13:57:04;10.57;;;9.47;;
15878;SDS011;61999;51.514;14.614;2022-10-17T13:59:43;10.57;;;9.63;;
15878;SDS011;61999;51.514;14.614;2022-10-17T14:02:15;10.00;;;9.10;;
15878;SDS011;61999;51.514;14.614;2022-10-17T14:04:57;10.03;;;9.23;;
15878;SDS011;61999;51.514;14.614;2022-10-17T14:07:41;9.90;;;9.00;;
15878;SDS011;61999;51.514;14.614;2022-10-17T14:10:37;10.97;;;9.97;;
15878;SDS011;61999;51.514;14.614;2022-10-17T14:13:13;9.70;;;8.90;;
15878;SDS011;61999;51.514;14.614;2022-10-17T14:15:53;11.23;;;10.17;;
15878;SDS011;61999;51.514;14.614;2022-10-17T14:18:24;9.87;;;9.07;;
15878;SDS011;61999;51.514;14.614;2022-10-17T14:20:58;10.33;;;9.53;;
15878;SDS011;61999;51.514;14.614;2022-10-17T14:23:48;11.37;;;10.13;;
15878;SDS011;61999;51.514;14.614;2022-10-17T14:26:20;10.87;;;9.87;;
15878;SDS011;61999;51.514;14.614;2022-10-17T14:29:03;10.60;;;9.67;;
15878;SDS011;61999;51.514;14.614;2022-10-17T14:31:33;12.27;;;11.07;;
15878;SDS011;61999;51.514;14.614;2022-10-17T14:34:03;10.60;;;9.73;;
15878;SDS011;61999;51.514;14.614;2022-10-17T14:36:33;10.93;;;9.93;;
15878;SDS011;61999;51.514;14.614;2022-10-17T14:39:05;10.37;;;9.00;;
15878;SDS011;61999;51.514;14.614;2022-10-17T14:41:46;11.63;;;10.53;;
15878;SDS011;61999;51.514;14.614;2022-10-17T14:44:17;11.23;;;10.30;;
15878;SDS011;61999;51.514;14.614;2022-10-17T14:46:53;11.60;;;10.60;;
15878;SDS011;61999;51.514;14.614;2022-10-17T14:49:27;12.57;;;11.37;;
15878;SDS011;61999;51.514;14.614;2022-10-17T14:52:11;11.27;;;10.17;;
15878;SDS011;61999;51.514;14.614;2022-10-17T14:54:59;12.07;;;10.90;;
15878;SDS011;61999;51.514;14.614;2022-10-17T14:57:50;11.57;;;10.57;;
15878;SDS011;61999;51.514;14.614;2022-10-17T15:00:19;12.37;;;11.13;;
15878;SDS011;61999;51.514;14.614;2022-10-17T15:02:49;11.17;;;10.20;;
15878;SDS011;61999;51.514;14.614;2022-10-17T15:05:19;14.13;;;12.70;;
15878;SDS011;61999;51.514;14.614;2022-10-17T15:07:50;11.43;;;10.27;;
15878;SDS011;61999;51.514;14.614;2022-10-17T15:10:26;11.20;;;10.23;;
15878;SDS011;61999;51.514;14.614;2022-10-17T15:13:01;11.73;;;10.63;;